<?xml version="1.0" encoding="UTF-8" standalone="no" ?>
<gpx xmlns="http://www.topografix.com/GPX/1/1" xmlns:xsi="http://www.w3.org/2001/XMLSchema-instance" xsi:schemaLocation="http://www.topografix.com/GPX/1/1 http://www.topografix.com/GPX/1/1/gpx.xsd" version="1.1" creator="VisuGPX - https://www.visugpx.com">
  <metadata>
    <name>Randonnée les 4 chemins massif de la Madeleine.</name>
    <desc><![CDATA[ les 4 Chemins massif de la Madeleine. La Croix du Rendez-vous, la Solitude.       ]]></desc>
  </metadata>
  <trk>
    <name><![CDATA[2018-02-15 16:18:18]]></name>
    <trkseg>
      <trkpt lat="48.29186" lon="6.85724">
        <ele>600.43</ele>
        <time>2018-02-15T12:53:59Z</time>
      </trkpt>
      <trkpt lat="48.29186" lon="6.85724">
        <ele>600.43</ele>
        <time>2018-02-15T12:54:00Z</time>
      </trkpt>
      <trkpt lat="48.29183" lon="6.85722">
        <ele>600.86</ele>
        <time>2018-02-15T12:54:30Z</time>
      </trkpt>
      <trkpt lat="48.29185" lon="6.85717">
        <ele>600.8</ele>
        <time>2018-02-15T12:54:50Z</time>
      </trkpt>
      <trkpt lat="48.29179" lon="6.85713">
        <ele>600.24</ele>
        <time>2018-02-15T12:55:13Z</time>
      </trkpt>
      <trkpt lat="48.29175" lon="6.85719">
        <ele>600.95</ele>
        <time>2018-02-15T12:55:36Z</time>
      </trkpt>
      <trkpt lat="48.29182" lon="6.85719">
        <ele>601.02</ele>
        <time>2018-02-15T12:55:56Z</time>
      </trkpt>
      <trkpt lat="48.29184" lon="6.85711">
        <ele>601.63</ele>
        <time>2018-02-15T12:56:15Z</time>
      </trkpt>
      <trkpt lat="48.29184" lon="6.85702">
        <ele>601.84</ele>
        <time>2018-02-15T12:56:43Z</time>
      </trkpt>
      <trkpt lat="48.29181" lon="6.85708">
        <ele>601.94</ele>
        <time>2018-02-15T12:57:02Z</time>
      </trkpt>
      <trkpt lat="48.29186" lon="6.85713">
        <ele>601.88</ele>
        <time>2018-02-15T12:57:23Z</time>
      </trkpt>
      <trkpt lat="48.29169" lon="6.85732">
        <ele>600.68</ele>
        <time>2018-02-15T12:57:43Z</time>
      </trkpt>
      <trkpt lat="48.29158" lon="6.85746">
        <ele>601.26</ele>
        <time>2018-02-15T12:58:04Z</time>
      </trkpt>
      <trkpt lat="48.29152" lon="6.8576">
        <ele>602.36</ele>
        <time>2018-02-15T12:58:20Z</time>
      </trkpt>
      <trkpt lat="48.29143" lon="6.85776">
        <ele>601.98</ele>
        <time>2018-02-15T12:58:41Z</time>
      </trkpt>
      <trkpt lat="48.2914" lon="6.85795">
        <ele>605.27</ele>
        <time>2018-02-15T12:59:01Z</time>
      </trkpt>
      <trkpt lat="48.2913" lon="6.85813">
        <ele>607.13</ele>
        <time>2018-02-15T12:59:24Z</time>
      </trkpt>
      <trkpt lat="48.29126" lon="6.85822">
        <ele>608.66</ele>
        <time>2018-02-15T12:59:33Z</time>
      </trkpt>
      <trkpt lat="48.2912" lon="6.85834">
        <ele>609.5</ele>
        <time>2018-02-15T12:59:49Z</time>
      </trkpt>
      <trkpt lat="48.29121" lon="6.85838">
        <ele>609.48</ele>
        <time>2018-02-15T12:59:58Z</time>
      </trkpt>
      <trkpt lat="48.29115" lon="6.85845">
        <ele>610.72</ele>
        <time>2018-02-15T13:00:29Z</time>
      </trkpt>
      <trkpt lat="48.29107" lon="6.85862">
        <ele>611.98</ele>
        <time>2018-02-15T13:00:51Z</time>
      </trkpt>
      <trkpt lat="48.29101" lon="6.85885">
        <ele>614.63</ele>
        <time>2018-02-15T13:01:17Z</time>
      </trkpt>
      <trkpt lat="48.29094" lon="6.85904">
        <ele>616.73</ele>
        <time>2018-02-15T13:01:40Z</time>
      </trkpt>
      <trkpt lat="48.29092" lon="6.85915">
        <ele>618.25</ele>
        <time>2018-02-15T13:01:56Z</time>
      </trkpt>
      <trkpt lat="48.29085" lon="6.85926">
        <ele>619.9</ele>
        <time>2018-02-15T13:02:18Z</time>
      </trkpt>
      <trkpt lat="48.29077" lon="6.85934">
        <ele>621.72</ele>
        <time>2018-02-15T13:02:39Z</time>
      </trkpt>
      <trkpt lat="48.2907" lon="6.85936">
        <ele>622.45</ele>
        <time>2018-02-15T13:02:56Z</time>
      </trkpt>
      <trkpt lat="48.29061" lon="6.85948">
        <ele>623.85</ele>
        <time>2018-02-15T13:03:15Z</time>
      </trkpt>
      <trkpt lat="48.29062" lon="6.85959">
        <ele>626.96</ele>
        <time>2018-02-15T13:03:32Z</time>
      </trkpt>
      <trkpt lat="48.29061" lon="6.85977">
        <ele>627.79</ele>
        <time>2018-02-15T13:03:55Z</time>
      </trkpt>
      <trkpt lat="48.2906" lon="6.85988">
        <ele>628.2</ele>
        <time>2018-02-15T13:04:19Z</time>
      </trkpt>
      <trkpt lat="48.29055" lon="6.85997">
        <ele>629.58</ele>
        <time>2018-02-15T13:04:42Z</time>
      </trkpt>
      <trkpt lat="48.29049" lon="6.86006">
        <ele>630.32</ele>
        <time>2018-02-15T13:05:05Z</time>
      </trkpt>
      <trkpt lat="48.29039" lon="6.8602">
        <ele>631</ele>
        <time>2018-02-15T13:05:26Z</time>
      </trkpt>
      <trkpt lat="48.29038" lon="6.86027">
        <ele>632.52</ele>
        <time>2018-02-15T13:05:39Z</time>
      </trkpt>
      <trkpt lat="48.29029" lon="6.86047">
        <ele>632.75</ele>
        <time>2018-02-15T13:06:00Z</time>
      </trkpt>
      <trkpt lat="48.29025" lon="6.86054">
        <ele>633.81</ele>
        <time>2018-02-15T13:06:12Z</time>
      </trkpt>
      <trkpt lat="48.29014" lon="6.86076">
        <ele>634.57</ele>
        <time>2018-02-15T13:06:32Z</time>
      </trkpt>
      <trkpt lat="48.29012" lon="6.8608">
        <ele>635.14</ele>
        <time>2018-02-15T13:06:37Z</time>
      </trkpt>
      <trkpt lat="48.29006" lon="6.861">
        <ele>635.92</ele>
        <time>2018-02-15T13:06:59Z</time>
      </trkpt>
      <trkpt lat="48.29006" lon="6.86117">
        <ele>637.27</ele>
        <time>2018-02-15T13:07:15Z</time>
      </trkpt>
      <trkpt lat="48.29003" lon="6.8613">
        <ele>638.08</ele>
        <time>2018-02-15T13:07:26Z</time>
      </trkpt>
      <trkpt lat="48.29001" lon="6.86139">
        <ele>637.88</ele>
        <time>2018-02-15T13:07:34Z</time>
      </trkpt>
      <trkpt lat="48.28995" lon="6.86153">
        <ele>639.31</ele>
        <time>2018-02-15T13:07:49Z</time>
      </trkpt>
      <trkpt lat="48.28994" lon="6.86161">
        <ele>639.98</ele>
        <time>2018-02-15T13:07:57Z</time>
      </trkpt>
      <trkpt lat="48.28994" lon="6.86182">
        <ele>641.35</ele>
        <time>2018-02-15T13:08:13Z</time>
      </trkpt>
      <trkpt lat="48.28993" lon="6.86189">
        <ele>641.67</ele>
        <time>2018-02-15T13:08:19Z</time>
      </trkpt>
      <trkpt lat="48.28986" lon="6.86213">
        <ele>641.24</ele>
        <time>2018-02-15T13:08:42Z</time>
      </trkpt>
      <trkpt lat="48.28983" lon="6.86229">
        <ele>641.13</ele>
        <time>2018-02-15T13:09:08Z</time>
      </trkpt>
      <trkpt lat="48.28982" lon="6.86244">
        <ele>641.87</ele>
        <time>2018-02-15T13:09:30Z</time>
      </trkpt>
      <trkpt lat="48.2898" lon="6.86254">
        <ele>641.95</ele>
        <time>2018-02-15T13:09:49Z</time>
      </trkpt>
      <trkpt lat="48.28977" lon="6.8627">
        <ele>642.42</ele>
        <time>2018-02-15T13:10:07Z</time>
      </trkpt>
      <trkpt lat="48.28976" lon="6.86274">
        <ele>641.81</ele>
        <time>2018-02-15T13:10:10Z</time>
      </trkpt>
      <trkpt lat="48.28979" lon="6.86282">
        <ele>641.91</ele>
        <time>2018-02-15T13:10:16Z</time>
      </trkpt>
      <trkpt lat="48.28979" lon="6.8629">
        <ele>641.74</ele>
        <time>2018-02-15T13:10:33Z</time>
      </trkpt>
      <trkpt lat="48.28975" lon="6.86291">
        <ele>641.12</ele>
        <time>2018-02-15T13:10:51Z</time>
      </trkpt>
      <trkpt lat="48.28969" lon="6.86298">
        <ele>641.98</ele>
        <time>2018-02-15T13:11:03Z</time>
      </trkpt>
      <trkpt lat="48.28968" lon="6.86327">
        <ele>641.73</ele>
        <time>2018-02-15T13:11:22Z</time>
      </trkpt>
      <trkpt lat="48.28975" lon="6.86346">
        <ele>640.89</ele>
        <time>2018-02-15T13:11:45Z</time>
      </trkpt>
      <trkpt lat="48.28982" lon="6.86354">
        <ele>641.34</ele>
        <time>2018-02-15T13:12:01Z</time>
      </trkpt>
      <trkpt lat="48.28994" lon="6.86363">
        <ele>640.7</ele>
        <time>2018-02-15T13:12:18Z</time>
      </trkpt>
      <trkpt lat="48.28997" lon="6.86364">
        <ele>640.33</ele>
        <time>2018-02-15T13:12:24Z</time>
      </trkpt>
      <trkpt lat="48.28998" lon="6.86363">
        <ele>640.85</ele>
        <time>2018-02-15T13:12:27Z</time>
      </trkpt>
      <trkpt lat="48.29004" lon="6.86361">
        <ele>640.98</ele>
        <time>2018-02-15T13:12:58Z</time>
      </trkpt>
      <trkpt lat="48.28998" lon="6.86364">
        <ele>640.62</ele>
        <time>2018-02-15T13:13:29Z</time>
      </trkpt>
      <trkpt lat="48.28996" lon="6.86365">
        <ele>640.37</ele>
        <time>2018-02-15T13:13:59Z</time>
      </trkpt>
      <trkpt lat="48.29" lon="6.8638">
        <ele>641.52</ele>
        <time>2018-02-15T13:14:22Z</time>
      </trkpt>
      <trkpt lat="48.29006" lon="6.86406">
        <ele>641.56</ele>
        <time>2018-02-15T13:14:42Z</time>
      </trkpt>
      <trkpt lat="48.29008" lon="6.86437">
        <ele>641.59</ele>
        <time>2018-02-15T13:15:06Z</time>
      </trkpt>
      <trkpt lat="48.29006" lon="6.86478">
        <ele>641.65</ele>
        <time>2018-02-15T13:15:34Z</time>
      </trkpt>
      <trkpt lat="48.29006" lon="6.86506">
        <ele>641.69</ele>
        <time>2018-02-15T13:15:55Z</time>
      </trkpt>
      <trkpt lat="48.29012" lon="6.86533">
        <ele>641.73</ele>
        <time>2018-02-15T13:16:15Z</time>
      </trkpt>
      <trkpt lat="48.29007" lon="6.86562">
        <ele>641.79</ele>
        <time>2018-02-15T13:16:39Z</time>
      </trkpt>
      <trkpt lat="48.28995" lon="6.86589">
        <ele>641.89</ele>
        <time>2018-02-15T13:17:04Z</time>
      </trkpt>
      <trkpt lat="48.28989" lon="6.86615">
        <ele>641.99</ele>
        <time>2018-02-15T13:17:26Z</time>
      </trkpt>
      <trkpt lat="48.28988" lon="6.86619">
        <ele>650.44</ele>
        <time>2018-02-15T13:17:30Z</time>
      </trkpt>
      <trkpt lat="48.28982" lon="6.86648">
        <ele>650.76</ele>
        <time>2018-02-15T13:17:54Z</time>
      </trkpt>
      <trkpt lat="48.28977" lon="6.86681">
        <ele>650.76</ele>
        <time>2018-02-15T13:18:15Z</time>
      </trkpt>
      <trkpt lat="48.28977" lon="6.86705">
        <ele>650.75</ele>
        <time>2018-02-15T13:18:32Z</time>
      </trkpt>
      <trkpt lat="48.28979" lon="6.86739">
        <ele>650.72</ele>
        <time>2018-02-15T13:18:53Z</time>
      </trkpt>
      <trkpt lat="48.28971" lon="6.86768">
        <ele>650.67</ele>
        <time>2018-02-15T13:19:13Z</time>
      </trkpt>
      <trkpt lat="48.28975" lon="6.86793">
        <ele>650.61</ele>
        <time>2018-02-15T13:19:34Z</time>
      </trkpt>
      <trkpt lat="48.28975" lon="6.86805">
        <ele>656.8</ele>
        <time>2018-02-15T13:19:42Z</time>
      </trkpt>
      <trkpt lat="48.28977" lon="6.86828">
        <ele>657.64</ele>
        <time>2018-02-15T13:19:58Z</time>
      </trkpt>
      <trkpt lat="48.28978" lon="6.86851">
        <ele>659.25</ele>
        <time>2018-02-15T13:20:15Z</time>
      </trkpt>
      <trkpt lat="48.28978" lon="6.86868">
        <ele>657.98</ele>
        <time>2018-02-15T13:20:25Z</time>
      </trkpt>
      <trkpt lat="48.28979" lon="6.86885">
        <ele>658.3</ele>
        <time>2018-02-15T13:20:38Z</time>
      </trkpt>
      <trkpt lat="48.28982" lon="6.86891">
        <ele>657.99</ele>
        <time>2018-02-15T13:20:42Z</time>
      </trkpt>
      <trkpt lat="48.28988" lon="6.86901">
        <ele>659.46</ele>
        <time>2018-02-15T13:20:53Z</time>
      </trkpt>
      <trkpt lat="48.28994" lon="6.86917">
        <ele>656.74</ele>
        <time>2018-02-15T13:21:06Z</time>
      </trkpt>
      <trkpt lat="48.28995" lon="6.8692">
        <ele>660.74</ele>
        <time>2018-02-15T13:21:07Z</time>
      </trkpt>
      <trkpt lat="48.28997" lon="6.86922">
        <ele>659.38</ele>
        <time>2018-02-15T13:21:09Z</time>
      </trkpt>
      <trkpt lat="48.29012" lon="6.86939">
        <ele>659.28</ele>
        <time>2018-02-15T13:21:26Z</time>
      </trkpt>
      <trkpt lat="48.29014" lon="6.86952">
        <ele>659.11</ele>
        <time>2018-02-15T13:21:42Z</time>
      </trkpt>
      <trkpt lat="48.29031" lon="6.86966">
        <ele>659.57</ele>
        <time>2018-02-15T13:22:00Z</time>
      </trkpt>
      <trkpt lat="48.29053" lon="6.8699">
        <ele>659.15</ele>
        <time>2018-02-15T13:22:24Z</time>
      </trkpt>
      <trkpt lat="48.29064" lon="6.87011">
        <ele>658.85</ele>
        <time>2018-02-15T13:22:42Z</time>
      </trkpt>
      <trkpt lat="48.29079" lon="6.87029">
        <ele>658.58</ele>
        <time>2018-02-15T13:22:59Z</time>
      </trkpt>
      <trkpt lat="48.29091" lon="6.87045">
        <ele>658.7</ele>
        <time>2018-02-15T13:23:17Z</time>
      </trkpt>
      <trkpt lat="48.29098" lon="6.87056">
        <ele>657.65</ele>
        <time>2018-02-15T13:23:27Z</time>
      </trkpt>
      <trkpt lat="48.29104" lon="6.8707">
        <ele>658.08</ele>
        <time>2018-02-15T13:23:40Z</time>
      </trkpt>
      <trkpt lat="48.29114" lon="6.8709">
        <ele>657.7</ele>
        <time>2018-02-15T13:23:55Z</time>
      </trkpt>
      <trkpt lat="48.29121" lon="6.87103">
        <ele>656.46</ele>
        <time>2018-02-15T13:24:06Z</time>
      </trkpt>
      <trkpt lat="48.29133" lon="6.87124">
        <ele>656.27</ele>
        <time>2018-02-15T13:24:22Z</time>
      </trkpt>
      <trkpt lat="48.29142" lon="6.87141">
        <ele>655.6</ele>
        <time>2018-02-15T13:24:37Z</time>
      </trkpt>
      <trkpt lat="48.29155" lon="6.87158">
        <ele>656.68</ele>
        <time>2018-02-15T13:24:54Z</time>
      </trkpt>
      <trkpt lat="48.29164" lon="6.8718">
        <ele>656.61</ele>
        <time>2018-02-15T13:25:11Z</time>
      </trkpt>
      <trkpt lat="48.29165" lon="6.87183">
        <ele>656.28</ele>
        <time>2018-02-15T13:25:13Z</time>
      </trkpt>
      <trkpt lat="48.29172" lon="6.87195">
        <ele>655.67</ele>
        <time>2018-02-15T13:25:25Z</time>
      </trkpt>
      <trkpt lat="48.29186" lon="6.87228">
        <ele>655.09</ele>
        <time>2018-02-15T13:25:51Z</time>
      </trkpt>
      <trkpt lat="48.29196" lon="6.87241">
        <ele>654.91</ele>
        <time>2018-02-15T13:26:04Z</time>
      </trkpt>
      <trkpt lat="48.29202" lon="6.87261">
        <ele>654.74</ele>
        <time>2018-02-15T13:26:20Z</time>
      </trkpt>
      <trkpt lat="48.2921" lon="6.87279">
        <ele>654.38</ele>
        <time>2018-02-15T13:26:33Z</time>
      </trkpt>
      <trkpt lat="48.29212" lon="6.87291">
        <ele>655.25</ele>
        <time>2018-02-15T13:26:42Z</time>
      </trkpt>
      <trkpt lat="48.29213" lon="6.873">
        <ele>654.73</ele>
        <time>2018-02-15T13:26:51Z</time>
      </trkpt>
      <trkpt lat="48.29216" lon="6.87306">
        <ele>654.83</ele>
        <time>2018-02-15T13:26:56Z</time>
      </trkpt>
      <trkpt lat="48.29219" lon="6.87323">
        <ele>654.75</ele>
        <time>2018-02-15T13:27:05Z</time>
      </trkpt>
      <trkpt lat="48.2922" lon="6.87327">
        <ele>654.79</ele>
        <time>2018-02-15T13:27:08Z</time>
      </trkpt>
      <trkpt lat="48.29219" lon="6.87332">
        <ele>654.64</ele>
        <time>2018-02-15T13:27:13Z</time>
      </trkpt>
      <trkpt lat="48.29225" lon="6.8737">
        <ele>654.54</ele>
        <time>2018-02-15T13:27:38Z</time>
      </trkpt>
      <trkpt lat="48.29227" lon="6.87372">
        <ele>654.95</ele>
        <time>2018-02-15T13:27:53Z</time>
      </trkpt>
      <trkpt lat="48.29229" lon="6.87378">
        <ele>654.74</ele>
        <time>2018-02-15T13:28:12Z</time>
      </trkpt>
      <trkpt lat="48.2923" lon="6.87425">
        <ele>653.93</ele>
        <time>2018-02-15T13:28:34Z</time>
      </trkpt>
      <trkpt lat="48.29237" lon="6.87451">
        <ele>654.84</ele>
        <time>2018-02-15T13:28:49Z</time>
      </trkpt>
      <trkpt lat="48.29238" lon="6.87462">
        <ele>654.9</ele>
        <time>2018-02-15T13:28:57Z</time>
      </trkpt>
      <trkpt lat="48.29239" lon="6.87473">
        <ele>654.32</ele>
        <time>2018-02-15T13:29:03Z</time>
      </trkpt>
      <trkpt lat="48.29244" lon="6.87513">
        <ele>655.11</ele>
        <time>2018-02-15T13:29:25Z</time>
      </trkpt>
      <trkpt lat="48.29247" lon="6.87541">
        <ele>654.93</ele>
        <time>2018-02-15T13:29:45Z</time>
      </trkpt>
      <trkpt lat="48.29249" lon="6.87548">
        <ele>654.61</ele>
        <time>2018-02-15T13:29:50Z</time>
      </trkpt>
      <trkpt lat="48.29249" lon="6.87556">
        <ele>654.49</ele>
        <time>2018-02-15T13:29:56Z</time>
      </trkpt>
      <trkpt lat="48.29249" lon="6.87563">
        <ele>654.58</ele>
        <time>2018-02-15T13:30:01Z</time>
      </trkpt>
      <trkpt lat="48.29248" lon="6.87574">
        <ele>654.72</ele>
        <time>2018-02-15T13:30:22Z</time>
      </trkpt>
      <trkpt lat="48.29248" lon="6.87574">
        <ele>654.49</ele>
        <time>2018-02-15T13:30:23Z</time>
      </trkpt>
      <trkpt lat="48.29246" lon="6.87579">
        <ele>654.18</ele>
        <time>2018-02-15T13:30:30Z</time>
      </trkpt>
      <trkpt lat="48.29246" lon="6.87588">
        <ele>654.58</ele>
        <time>2018-02-15T13:30:56Z</time>
      </trkpt>
      <trkpt lat="48.29244" lon="6.87588">
        <ele>654.38</ele>
        <time>2018-02-15T13:31:08Z</time>
      </trkpt>
      <trkpt lat="48.29246" lon="6.87594">
        <ele>654.85</ele>
        <time>2018-02-15T13:31:35Z</time>
      </trkpt>
      <trkpt lat="48.29245" lon="6.87596">
        <ele>654.39</ele>
        <time>2018-02-15T13:32:02Z</time>
      </trkpt>
      <trkpt lat="48.29245" lon="6.87596">
        <ele>655.13</ele>
        <time>2018-02-15T13:32:15Z</time>
      </trkpt>
      <trkpt lat="48.29241" lon="6.876">
        <ele>654.66</ele>
        <time>2018-02-15T13:32:27Z</time>
      </trkpt>
      <trkpt lat="48.29248" lon="6.876">
        <ele>654.58</ele>
        <time>2018-02-15T13:32:49Z</time>
      </trkpt>
      <trkpt lat="48.29252" lon="6.87594">
        <ele>655.75</ele>
        <time>2018-02-15T13:33:19Z</time>
      </trkpt>
      <trkpt lat="48.29251" lon="6.87598">
        <ele>654.83</ele>
        <time>2018-02-15T13:33:48Z</time>
      </trkpt>
      <trkpt lat="48.29251" lon="6.87605">
        <ele>655.02</ele>
        <time>2018-02-15T13:34:14Z</time>
      </trkpt>
      <trkpt lat="48.29257" lon="6.87619">
        <ele>656.57</ele>
        <time>2018-02-15T13:34:34Z</time>
      </trkpt>
      <trkpt lat="48.29261" lon="6.8763">
        <ele>656.48</ele>
        <time>2018-02-15T13:34:45Z</time>
      </trkpt>
      <trkpt lat="48.2927" lon="6.87673">
        <ele>656.4</ele>
        <time>2018-02-15T13:35:12Z</time>
      </trkpt>
      <trkpt lat="48.2927" lon="6.87695">
        <ele>656.24</ele>
        <time>2018-02-15T13:35:22Z</time>
      </trkpt>
      <trkpt lat="48.29272" lon="6.87715">
        <ele>656.99</ele>
        <time>2018-02-15T13:35:38Z</time>
      </trkpt>
      <trkpt lat="48.29272" lon="6.87718">
        <ele>656.74</ele>
        <time>2018-02-15T13:35:39Z</time>
      </trkpt>
      <trkpt lat="48.29273" lon="6.87724">
        <ele>657.2</ele>
        <time>2018-02-15T13:35:45Z</time>
      </trkpt>
      <trkpt lat="48.2928" lon="6.87755">
        <ele>656.75</ele>
        <time>2018-02-15T13:36:02Z</time>
      </trkpt>
      <trkpt lat="48.29288" lon="6.87771">
        <ele>655.65</ele>
        <time>2018-02-15T13:36:17Z</time>
      </trkpt>
      <trkpt lat="48.29291" lon="6.87797">
        <ele>655.94</ele>
        <time>2018-02-15T13:36:32Z</time>
      </trkpt>
      <trkpt lat="48.29293" lon="6.87804">
        <ele>655.47</ele>
        <time>2018-02-15T13:36:35Z</time>
      </trkpt>
      <trkpt lat="48.29295" lon="6.8781">
        <ele>655.13</ele>
        <time>2018-02-15T13:36:40Z</time>
      </trkpt>
      <trkpt lat="48.29298" lon="6.87816">
        <ele>655.63</ele>
        <time>2018-02-15T13:36:43Z</time>
      </trkpt>
      <trkpt lat="48.29302" lon="6.87822">
        <ele>654.83</ele>
        <time>2018-02-15T13:36:48Z</time>
      </trkpt>
      <trkpt lat="48.29315" lon="6.87842">
        <ele>654.35</ele>
        <time>2018-02-15T13:37:04Z</time>
      </trkpt>
      <trkpt lat="48.29328" lon="6.87858">
        <ele>654.63</ele>
        <time>2018-02-15T13:37:18Z</time>
      </trkpt>
      <trkpt lat="48.29339" lon="6.87876">
        <ele>653.74</ele>
        <time>2018-02-15T13:37:34Z</time>
      </trkpt>
      <trkpt lat="48.29349" lon="6.87892">
        <ele>653.82</ele>
        <time>2018-02-15T13:37:48Z</time>
      </trkpt>
      <trkpt lat="48.29356" lon="6.87894">
        <ele>653.93</ele>
        <time>2018-02-15T13:37:55Z</time>
      </trkpt>
      <trkpt lat="48.29366" lon="6.87899">
        <ele>653.72</ele>
        <time>2018-02-15T13:38:05Z</time>
      </trkpt>
      <trkpt lat="48.29367" lon="6.87908">
        <ele>653.73</ele>
        <time>2018-02-15T13:38:10Z</time>
      </trkpt>
      <trkpt lat="48.29377" lon="6.8792">
        <ele>651.94</ele>
        <time>2018-02-15T13:38:20Z</time>
      </trkpt>
      <trkpt lat="48.2939" lon="6.87936">
        <ele>652.47</ele>
        <time>2018-02-15T13:38:31Z</time>
      </trkpt>
      <trkpt lat="48.29391" lon="6.87937">
        <ele>652.39</ele>
        <time>2018-02-15T13:38:32Z</time>
      </trkpt>
      <trkpt lat="48.29404" lon="6.87953">
        <ele>649.92</ele>
        <time>2018-02-15T13:38:45Z</time>
      </trkpt>
      <trkpt lat="48.29414" lon="6.87968">
        <ele>650.21</ele>
        <time>2018-02-15T13:38:57Z</time>
      </trkpt>
      <trkpt lat="48.29419" lon="6.87976">
        <ele>650.07</ele>
        <time>2018-02-15T13:39:06Z</time>
      </trkpt>
      <trkpt lat="48.29425" lon="6.87984">
        <ele>649.67</ele>
        <time>2018-02-15T13:39:17Z</time>
      </trkpt>
      <trkpt lat="48.29429" lon="6.88007">
        <ele>649.37</ele>
        <time>2018-02-15T13:39:30Z</time>
      </trkpt>
      <trkpt lat="48.29431" lon="6.88009">
        <ele>649.43</ele>
        <time>2018-02-15T13:39:32Z</time>
      </trkpt>
      <trkpt lat="48.29433" lon="6.88011">
        <ele>649.8</ele>
        <time>2018-02-15T13:39:34Z</time>
      </trkpt>
      <trkpt lat="48.29443" lon="6.88027">
        <ele>649.86</ele>
        <time>2018-02-15T13:39:46Z</time>
      </trkpt>
      <trkpt lat="48.29459" lon="6.8804">
        <ele>649.09</ele>
        <time>2018-02-15T13:40:03Z</time>
      </trkpt>
      <trkpt lat="48.29468" lon="6.88059">
        <ele>648.35</ele>
        <time>2018-02-15T13:40:16Z</time>
      </trkpt>
      <trkpt lat="48.29477" lon="6.8808">
        <ele>646.95</ele>
        <time>2018-02-15T13:40:27Z</time>
      </trkpt>
      <trkpt lat="48.29485" lon="6.8811">
        <ele>647.92</ele>
        <time>2018-02-15T13:40:50Z</time>
      </trkpt>
      <trkpt lat="48.295" lon="6.88124">
        <ele>646.78</ele>
        <time>2018-02-15T13:41:05Z</time>
      </trkpt>
      <trkpt lat="48.29509" lon="6.88138">
        <ele>647.42</ele>
        <time>2018-02-15T13:41:20Z</time>
      </trkpt>
      <trkpt lat="48.29518" lon="6.88148">
        <ele>645.25</ele>
        <time>2018-02-15T13:41:32Z</time>
      </trkpt>
      <trkpt lat="48.29526" lon="6.88156">
        <ele>646.92</ele>
        <time>2018-02-15T13:41:39Z</time>
      </trkpt>
      <trkpt lat="48.29535" lon="6.88171">
        <ele>647.83</ele>
        <time>2018-02-15T13:41:55Z</time>
      </trkpt>
      <trkpt lat="48.29546" lon="6.8819">
        <ele>647.08</ele>
        <time>2018-02-15T13:42:12Z</time>
      </trkpt>
      <trkpt lat="48.29558" lon="6.88201">
        <ele>647.35</ele>
        <time>2018-02-15T13:42:25Z</time>
      </trkpt>
      <trkpt lat="48.29572" lon="6.88212">
        <ele>646.66</ele>
        <time>2018-02-15T13:42:44Z</time>
      </trkpt>
      <trkpt lat="48.29575" lon="6.88214">
        <ele>646.35</ele>
        <time>2018-02-15T13:42:47Z</time>
      </trkpt>
      <trkpt lat="48.2958" lon="6.88224">
        <ele>645.74</ele>
        <time>2018-02-15T13:42:54Z</time>
      </trkpt>
      <trkpt lat="48.29587" lon="6.8824">
        <ele>645.97</ele>
        <time>2018-02-15T13:43:14Z</time>
      </trkpt>
      <trkpt lat="48.296" lon="6.88254">
        <ele>645.93</ele>
        <time>2018-02-15T13:43:30Z</time>
      </trkpt>
      <trkpt lat="48.2961" lon="6.88282">
        <ele>646.51</ele>
        <time>2018-02-15T13:43:50Z</time>
      </trkpt>
      <trkpt lat="48.2962" lon="6.88294">
        <ele>646.36</ele>
        <time>2018-02-15T13:44:07Z</time>
      </trkpt>
      <trkpt lat="48.29626" lon="6.88301">
        <ele>647.86</ele>
        <time>2018-02-15T13:44:15Z</time>
      </trkpt>
      <trkpt lat="48.29635" lon="6.8831">
        <ele>646.59</ele>
        <time>2018-02-15T13:44:27Z</time>
      </trkpt>
      <trkpt lat="48.29639" lon="6.8831">
        <ele>645.82</ele>
        <time>2018-02-15T13:44:29Z</time>
      </trkpt>
      <trkpt lat="48.2965" lon="6.88321">
        <ele>645.95</ele>
        <time>2018-02-15T13:44:39Z</time>
      </trkpt>
      <trkpt lat="48.29655" lon="6.88326">
        <ele>645.97</ele>
        <time>2018-02-15T13:44:43Z</time>
      </trkpt>
      <trkpt lat="48.29673" lon="6.88344">
        <ele>646.94</ele>
        <time>2018-02-15T13:45:02Z</time>
      </trkpt>
      <trkpt lat="48.29686" lon="6.88353">
        <ele>647.03</ele>
        <time>2018-02-15T13:45:22Z</time>
      </trkpt>
      <trkpt lat="48.29701" lon="6.88358">
        <ele>646.68</ele>
        <time>2018-02-15T13:45:38Z</time>
      </trkpt>
      <trkpt lat="48.29729" lon="6.88374">
        <ele>645.91</ele>
        <time>2018-02-15T13:46:00Z</time>
      </trkpt>
      <trkpt lat="48.29737" lon="6.88381">
        <ele>644.81</ele>
        <time>2018-02-15T13:46:15Z</time>
      </trkpt>
      <trkpt lat="48.29739" lon="6.88382">
        <ele>644.65</ele>
        <time>2018-02-15T13:46:17Z</time>
      </trkpt>
      <trkpt lat="48.29756" lon="6.88375">
        <ele>641.83</ele>
        <time>2018-02-15T13:46:37Z</time>
      </trkpt>
      <trkpt lat="48.29777" lon="6.88378">
        <ele>638.6</ele>
        <time>2018-02-15T13:46:57Z</time>
      </trkpt>
      <trkpt lat="48.29781" lon="6.88378">
        <ele>638.4</ele>
        <time>2018-02-15T13:47:02Z</time>
      </trkpt>
      <trkpt lat="48.29799" lon="6.88377">
        <ele>635.88</ele>
        <time>2018-02-15T13:47:18Z</time>
      </trkpt>
      <trkpt lat="48.29803" lon="6.88379">
        <ele>635.25</ele>
        <time>2018-02-15T13:47:24Z</time>
      </trkpt>
      <trkpt lat="48.29805" lon="6.8838">
        <ele>634.46</ele>
        <time>2018-02-15T13:47:26Z</time>
      </trkpt>
      <trkpt lat="48.29809" lon="6.88381">
        <ele>634.51</ele>
        <time>2018-02-15T13:47:30Z</time>
      </trkpt>
      <trkpt lat="48.29825" lon="6.8838">
        <ele>633.27</ele>
        <time>2018-02-15T13:47:43Z</time>
      </trkpt>
      <trkpt lat="48.29828" lon="6.8838">
        <ele>633.08</ele>
        <time>2018-02-15T13:47:48Z</time>
      </trkpt>
      <trkpt lat="48.29828" lon="6.88382">
        <ele>633.32</ele>
        <time>2018-02-15T13:48:08Z</time>
      </trkpt>
      <trkpt lat="48.29833" lon="6.88381">
        <ele>633.35</ele>
        <time>2018-02-15T13:48:30Z</time>
      </trkpt>
      <trkpt lat="48.29834" lon="6.88377">
        <ele>633.28</ele>
        <time>2018-02-15T13:48:58Z</time>
      </trkpt>
      <trkpt lat="48.2983" lon="6.88377">
        <ele>633.82</ele>
        <time>2018-02-15T13:49:20Z</time>
      </trkpt>
      <trkpt lat="48.29835" lon="6.8838">
        <ele>634.25</ele>
        <time>2018-02-15T13:49:49Z</time>
      </trkpt>
      <trkpt lat="48.29833" lon="6.88381">
        <ele>634.2</ele>
        <time>2018-02-15T13:50:18Z</time>
      </trkpt>
      <trkpt lat="48.29833" lon="6.88383">
        <ele>634.48</ele>
        <time>2018-02-15T13:50:48Z</time>
      </trkpt>
      <trkpt lat="48.29836" lon="6.88381">
        <ele>634.25</ele>
        <time>2018-02-15T13:51:17Z</time>
      </trkpt>
      <trkpt lat="48.29835" lon="6.88383">
        <ele>634.46</ele>
        <time>2018-02-15T13:51:49Z</time>
      </trkpt>
      <trkpt lat="48.2983" lon="6.88386">
        <ele>634.91</ele>
        <time>2018-02-15T13:52:19Z</time>
      </trkpt>
      <trkpt lat="48.29833" lon="6.88391">
        <ele>634.73</ele>
        <time>2018-02-15T13:52:48Z</time>
      </trkpt>
      <trkpt lat="48.29834" lon="6.88391">
        <ele>635.37</ele>
        <time>2018-02-15T13:53:20Z</time>
      </trkpt>
      <trkpt lat="48.29831" lon="6.884">
        <ele>636.51</ele>
        <time>2018-02-15T13:53:48Z</time>
      </trkpt>
      <trkpt lat="48.29826" lon="6.88417">
        <ele>635.9</ele>
        <time>2018-02-15T13:54:08Z</time>
      </trkpt>
      <trkpt lat="48.29814" lon="6.88441">
        <ele>635.77</ele>
        <time>2018-02-15T13:54:34Z</time>
      </trkpt>
      <trkpt lat="48.298" lon="6.88463">
        <ele>636.74</ele>
        <time>2018-02-15T13:54:56Z</time>
      </trkpt>
      <trkpt lat="48.29793" lon="6.88485">
        <ele>637.4</ele>
        <time>2018-02-15T13:55:17Z</time>
      </trkpt>
      <trkpt lat="48.29774" lon="6.88506">
        <ele>637.2</ele>
        <time>2018-02-15T13:55:39Z</time>
      </trkpt>
      <trkpt lat="48.29765" lon="6.88533">
        <ele>636.26</ele>
        <time>2018-02-15T13:55:59Z</time>
      </trkpt>
      <trkpt lat="48.29753" lon="6.88558">
        <ele>635.89</ele>
        <time>2018-02-15T13:56:21Z</time>
      </trkpt>
      <trkpt lat="48.29743" lon="6.88588">
        <ele>633.69</ele>
        <time>2018-02-15T13:56:45Z</time>
      </trkpt>
      <trkpt lat="48.29735" lon="6.8861">
        <ele>630.67</ele>
        <time>2018-02-15T13:57:07Z</time>
      </trkpt>
      <trkpt lat="48.2972" lon="6.8863">
        <ele>629.15</ele>
        <time>2018-02-15T13:57:31Z</time>
      </trkpt>
      <trkpt lat="48.29708" lon="6.88653">
        <ele>629.72</ele>
        <time>2018-02-15T13:57:52Z</time>
      </trkpt>
      <trkpt lat="48.29702" lon="6.88665">
        <ele>629.98</ele>
        <time>2018-02-15T13:58:04Z</time>
      </trkpt>
      <trkpt lat="48.29692" lon="6.88687">
        <ele>630.91</ele>
        <time>2018-02-15T13:58:17Z</time>
      </trkpt>
      <trkpt lat="48.29681" lon="6.88711">
        <ele>631.24</ele>
        <time>2018-02-15T13:58:36Z</time>
      </trkpt>
      <trkpt lat="48.29671" lon="6.88744">
        <ele>629.96</ele>
        <time>2018-02-15T13:59:00Z</time>
      </trkpt>
      <trkpt lat="48.29664" lon="6.88773">
        <ele>629.67</ele>
        <time>2018-02-15T13:59:20Z</time>
      </trkpt>
      <trkpt lat="48.29656" lon="6.88801">
        <ele>629.05</ele>
        <time>2018-02-15T13:59:40Z</time>
      </trkpt>
      <trkpt lat="48.2965" lon="6.8882">
        <ele>629.28</ele>
        <time>2018-02-15T14:00:02Z</time>
      </trkpt>
      <trkpt lat="48.29646" lon="6.88845">
        <ele>628.7</ele>
        <time>2018-02-15T14:00:24Z</time>
      </trkpt>
      <trkpt lat="48.29633" lon="6.88874">
        <ele>628.33</ele>
        <time>2018-02-15T14:00:47Z</time>
      </trkpt>
      <trkpt lat="48.29617" lon="6.88891">
        <ele>628.48</ele>
        <time>2018-02-15T14:01:08Z</time>
      </trkpt>
      <trkpt lat="48.29603" lon="6.88894">
        <ele>627.88</ele>
        <time>2018-02-15T14:01:26Z</time>
      </trkpt>
      <trkpt lat="48.29578" lon="6.88893">
        <ele>626.67</ele>
        <time>2018-02-15T14:01:48Z</time>
      </trkpt>
      <trkpt lat="48.29564" lon="6.88893">
        <ele>624.91</ele>
        <time>2018-02-15T14:02:06Z</time>
      </trkpt>
      <trkpt lat="48.29547" lon="6.88891">
        <ele>623.52</ele>
        <time>2018-02-15T14:02:23Z</time>
      </trkpt>
      <trkpt lat="48.29539" lon="6.88888">
        <ele>622.8</ele>
        <time>2018-02-15T14:02:35Z</time>
      </trkpt>
      <trkpt lat="48.29527" lon="6.88881">
        <ele>620.84</ele>
        <time>2018-02-15T14:02:53Z</time>
      </trkpt>
      <trkpt lat="48.29513" lon="6.88873">
        <ele>620.75</ele>
        <time>2018-02-15T14:03:06Z</time>
      </trkpt>
      <trkpt lat="48.29489" lon="6.88865">
        <ele>618.87</ele>
        <time>2018-02-15T14:03:26Z</time>
      </trkpt>
      <trkpt lat="48.29471" lon="6.88869">
        <ele>617.8</ele>
        <time>2018-02-15T14:03:47Z</time>
      </trkpt>
      <trkpt lat="48.29457" lon="6.8886">
        <ele>617.94</ele>
        <time>2018-02-15T14:04:05Z</time>
      </trkpt>
      <trkpt lat="48.29455" lon="6.88857">
        <ele>618.77</ele>
        <time>2018-02-15T14:04:23Z</time>
      </trkpt>
      <trkpt lat="48.29468" lon="6.88853">
        <ele>618.38</ele>
        <time>2018-02-15T14:04:45Z</time>
      </trkpt>
      <trkpt lat="48.2947" lon="6.88853">
        <ele>618.94</ele>
        <time>2018-02-15T14:04:54Z</time>
      </trkpt>
      <trkpt lat="48.29469" lon="6.8885">
        <ele>618.38</ele>
        <time>2018-02-15T14:05:12Z</time>
      </trkpt>
      <trkpt lat="48.29457" lon="6.88843">
        <ele>618.35</ele>
        <time>2018-02-15T14:05:30Z</time>
      </trkpt>
      <trkpt lat="48.29453" lon="6.88825">
        <ele>618.58</ele>
        <time>2018-02-15T14:05:46Z</time>
      </trkpt>
      <trkpt lat="48.29453" lon="6.88799">
        <ele>620.54</ele>
        <time>2018-02-15T14:06:05Z</time>
      </trkpt>
      <trkpt lat="48.29456" lon="6.8878">
        <ele>620.53</ele>
        <time>2018-02-15T14:06:25Z</time>
      </trkpt>
      <trkpt lat="48.29459" lon="6.88755">
        <ele>620.84</ele>
        <time>2018-02-15T14:06:51Z</time>
      </trkpt>
      <trkpt lat="48.29466" lon="6.88719">
        <ele>621.77</ele>
        <time>2018-02-15T14:07:10Z</time>
      </trkpt>
      <trkpt lat="48.29475" lon="6.88676">
        <ele>620.29</ele>
        <time>2018-02-15T14:07:34Z</time>
      </trkpt>
      <trkpt lat="48.29484" lon="6.88639">
        <ele>620.23</ele>
        <time>2018-02-15T14:07:54Z</time>
      </trkpt>
      <trkpt lat="48.29499" lon="6.88608">
        <ele>618.19</ele>
        <time>2018-02-15T14:08:16Z</time>
      </trkpt>
      <trkpt lat="48.29506" lon="6.8859">
        <ele>616.01</ele>
        <time>2018-02-15T14:08:37Z</time>
      </trkpt>
      <trkpt lat="48.29511" lon="6.88577">
        <ele>615.51</ele>
        <time>2018-02-15T14:08:50Z</time>
      </trkpt>
      <trkpt lat="48.29507" lon="6.88518">
        <ele>614.8</ele>
        <time>2018-02-15T14:09:13Z</time>
      </trkpt>
      <trkpt lat="48.29495" lon="6.88481">
        <ele>614.78</ele>
        <time>2018-02-15T14:09:37Z</time>
      </trkpt>
      <trkpt lat="48.29478" lon="6.88448">
        <ele>615.42</ele>
        <time>2018-02-15T14:09:58Z</time>
      </trkpt>
      <trkpt lat="48.29473" lon="6.88432">
        <ele>616.24</ele>
        <time>2018-02-15T14:10:08Z</time>
      </trkpt>
      <trkpt lat="48.29471" lon="6.88428">
        <ele>616.36</ele>
        <time>2018-02-15T14:10:12Z</time>
      </trkpt>
      <trkpt lat="48.29471" lon="6.88426">
        <ele>616.06</ele>
        <time>2018-02-15T14:10:14Z</time>
      </trkpt>
      <trkpt lat="48.2947" lon="6.88411">
        <ele>618.33</ele>
        <time>2018-02-15T14:10:32Z</time>
      </trkpt>
      <trkpt lat="48.29467" lon="6.88404">
        <ele>617.32</ele>
        <time>2018-02-15T14:10:37Z</time>
      </trkpt>
      <trkpt lat="48.29463" lon="6.88385">
        <ele>617.71</ele>
        <time>2018-02-15T14:10:45Z</time>
      </trkpt>
      <trkpt lat="48.29458" lon="6.88364">
        <ele>618.15</ele>
        <time>2018-02-15T14:11:01Z</time>
      </trkpt>
      <trkpt lat="48.29458" lon="6.88359">
        <ele>618.83</ele>
        <time>2018-02-15T14:11:05Z</time>
      </trkpt>
      <trkpt lat="48.29444" lon="6.88328">
        <ele>617.19</ele>
        <time>2018-02-15T14:11:24Z</time>
      </trkpt>
      <trkpt lat="48.29426" lon="6.88292">
        <ele>615.1</ele>
        <time>2018-02-15T14:11:47Z</time>
      </trkpt>
      <trkpt lat="48.29407" lon="6.88271">
        <ele>613.1</ele>
        <time>2018-02-15T14:12:08Z</time>
      </trkpt>
      <trkpt lat="48.29396" lon="6.88246">
        <ele>612.25</ele>
        <time>2018-02-15T14:12:25Z</time>
      </trkpt>
      <trkpt lat="48.29379" lon="6.88221">
        <ele>611.04</ele>
        <time>2018-02-15T14:12:46Z</time>
      </trkpt>
      <trkpt lat="48.29363" lon="6.88196">
        <ele>610.31</ele>
        <time>2018-02-15T14:13:08Z</time>
      </trkpt>
      <trkpt lat="48.29358" lon="6.88183">
        <ele>610.24</ele>
        <time>2018-02-15T14:13:22Z</time>
      </trkpt>
      <trkpt lat="48.29349" lon="6.88172">
        <ele>610.7</ele>
        <time>2018-02-15T14:13:33Z</time>
      </trkpt>
      <trkpt lat="48.2933" lon="6.88157">
        <ele>610.57</ele>
        <time>2018-02-15T14:13:56Z</time>
      </trkpt>
      <trkpt lat="48.29305" lon="6.88144">
        <ele>610.94</ele>
        <time>2018-02-15T14:14:18Z</time>
      </trkpt>
      <trkpt lat="48.29298" lon="6.88136">
        <ele>611.22</ele>
        <time>2018-02-15T14:14:24Z</time>
      </trkpt>
      <trkpt lat="48.29297" lon="6.88132">
        <ele>610.49</ele>
        <time>2018-02-15T14:14:29Z</time>
      </trkpt>
      <trkpt lat="48.29295" lon="6.88127">
        <ele>611.31</ele>
        <time>2018-02-15T14:14:53Z</time>
      </trkpt>
      <trkpt lat="48.29297" lon="6.88129">
        <ele>611.27</ele>
        <time>2018-02-15T14:14:57Z</time>
      </trkpt>
      <trkpt lat="48.29302" lon="6.88127">
        <ele>612.92</ele>
        <time>2018-02-15T14:15:21Z</time>
      </trkpt>
      <trkpt lat="48.29284" lon="6.88112">
        <ele>612.6</ele>
        <time>2018-02-15T14:15:39Z</time>
      </trkpt>
      <trkpt lat="48.29269" lon="6.881">
        <ele>613.11</ele>
        <time>2018-02-15T14:15:56Z</time>
      </trkpt>
      <trkpt lat="48.29252" lon="6.88086">
        <ele>612.59</ele>
        <time>2018-02-15T14:16:16Z</time>
      </trkpt>
      <trkpt lat="48.29242" lon="6.88079">
        <ele>615.29</ele>
        <time>2018-02-15T14:16:33Z</time>
      </trkpt>
      <trkpt lat="48.29232" lon="6.88076">
        <ele>615.81</ele>
        <time>2018-02-15T14:16:48Z</time>
      </trkpt>
      <trkpt lat="48.29222" lon="6.88068">
        <ele>617.91</ele>
        <time>2018-02-15T14:17:02Z</time>
      </trkpt>
      <trkpt lat="48.2922" lon="6.88066">
        <ele>618.9</ele>
        <time>2018-02-15T14:17:04Z</time>
      </trkpt>
      <trkpt lat="48.29217" lon="6.88064">
        <ele>619.26</ele>
        <time>2018-02-15T14:17:08Z</time>
      </trkpt>
      <trkpt lat="48.29214" lon="6.88063">
        <ele>620.71</ele>
        <time>2018-02-15T14:17:10Z</time>
      </trkpt>
      <trkpt lat="48.29203" lon="6.88057">
        <ele>620.65</ele>
        <time>2018-02-15T14:17:21Z</time>
      </trkpt>
      <trkpt lat="48.29192" lon="6.88051">
        <ele>621.69</ele>
        <time>2018-02-15T14:17:32Z</time>
      </trkpt>
      <trkpt lat="48.29178" lon="6.88025">
        <ele>623.79</ele>
        <time>2018-02-15T14:17:54Z</time>
      </trkpt>
      <trkpt lat="48.29169" lon="6.88014">
        <ele>623.32</ele>
        <time>2018-02-15T14:18:06Z</time>
      </trkpt>
      <trkpt lat="48.29155" lon="6.88">
        <ele>623.72</ele>
        <time>2018-02-15T14:18:22Z</time>
      </trkpt>
      <trkpt lat="48.29143" lon="6.8798">
        <ele>623.81</ele>
        <time>2018-02-15T14:18:41Z</time>
      </trkpt>
      <trkpt lat="48.29127" lon="6.87962">
        <ele>624.15</ele>
        <time>2018-02-15T14:19:02Z</time>
      </trkpt>
      <trkpt lat="48.29126" lon="6.8796">
        <ele>624.34</ele>
        <time>2018-02-15T14:19:03Z</time>
      </trkpt>
      <trkpt lat="48.29115" lon="6.8794">
        <ele>623.68</ele>
        <time>2018-02-15T14:19:19Z</time>
      </trkpt>
      <trkpt lat="48.2911" lon="6.87932">
        <ele>623.15</ele>
        <time>2018-02-15T14:19:28Z</time>
      </trkpt>
      <trkpt lat="48.291" lon="6.87915">
        <ele>623.99</ele>
        <time>2018-02-15T14:19:44Z</time>
      </trkpt>
      <trkpt lat="48.29099" lon="6.8791">
        <ele>623.44</ele>
        <time>2018-02-15T14:20:04Z</time>
      </trkpt>
      <trkpt lat="48.29092" lon="6.87908">
        <ele>623.52</ele>
        <time>2018-02-15T14:20:13Z</time>
      </trkpt>
      <trkpt lat="48.29091" lon="6.87907">
        <ele>623</ele>
        <time>2018-02-15T14:20:14Z</time>
      </trkpt>
      <trkpt lat="48.29081" lon="6.87893">
        <ele>622.85</ele>
        <time>2018-02-15T14:20:29Z</time>
      </trkpt>
      <trkpt lat="48.29078" lon="6.87892">
        <ele>623.45</ele>
        <time>2018-02-15T14:20:31Z</time>
      </trkpt>
      <trkpt lat="48.29066" lon="6.87874">
        <ele>623</ele>
        <time>2018-02-15T14:20:47Z</time>
      </trkpt>
      <trkpt lat="48.29058" lon="6.87862">
        <ele>623.36</ele>
        <time>2018-02-15T14:20:59Z</time>
      </trkpt>
      <trkpt lat="48.29047" lon="6.8785">
        <ele>624.05</ele>
        <time>2018-02-15T14:21:13Z</time>
      </trkpt>
      <trkpt lat="48.29041" lon="6.8784">
        <ele>624.17</ele>
        <time>2018-02-15T14:21:21Z</time>
      </trkpt>
      <trkpt lat="48.29026" lon="6.87812">
        <ele>625.27</ele>
        <time>2018-02-15T14:21:44Z</time>
      </trkpt>
      <trkpt lat="48.29016" lon="6.87781">
        <ele>624.27</ele>
        <time>2018-02-15T14:22:04Z</time>
      </trkpt>
      <trkpt lat="48.29007" lon="6.87757">
        <ele>623.8</ele>
        <time>2018-02-15T14:22:24Z</time>
      </trkpt>
      <trkpt lat="48.29002" lon="6.87721">
        <ele>623.74</ele>
        <time>2018-02-15T14:22:46Z</time>
      </trkpt>
      <trkpt lat="48.29" lon="6.87689">
        <ele>622.11</ele>
        <time>2018-02-15T14:23:04Z</time>
      </trkpt>
      <trkpt lat="48.29001" lon="6.87658">
        <ele>621.82</ele>
        <time>2018-02-15T14:23:24Z</time>
      </trkpt>
      <trkpt lat="48.28998" lon="6.87627">
        <ele>621.21</ele>
        <time>2018-02-15T14:23:41Z</time>
      </trkpt>
      <trkpt lat="48.28998" lon="6.87608">
        <ele>620.5</ele>
        <time>2018-02-15T14:23:53Z</time>
      </trkpt>
      <trkpt lat="48.28998" lon="6.8758">
        <ele>620.81</ele>
        <time>2018-02-15T14:24:11Z</time>
      </trkpt>
      <trkpt lat="48.29" lon="6.87574">
        <ele>620.35</ele>
        <time>2018-02-15T14:24:18Z</time>
      </trkpt>
      <trkpt lat="48.29" lon="6.87569">
        <ele>620.37</ele>
        <time>2018-02-15T14:24:22Z</time>
      </trkpt>
      <trkpt lat="48.29001" lon="6.87556">
        <ele>619.69</ele>
        <time>2018-02-15T14:24:33Z</time>
      </trkpt>
      <trkpt lat="48.28999" lon="6.87539">
        <ele>619.1</ele>
        <time>2018-02-15T14:24:41Z</time>
      </trkpt>
      <trkpt lat="48.29" lon="6.87522">
        <ele>618.41</ele>
        <time>2018-02-15T14:24:56Z</time>
      </trkpt>
      <trkpt lat="48.29002" lon="6.87515">
        <ele>619.2</ele>
        <time>2018-02-15T14:25:00Z</time>
      </trkpt>
      <trkpt lat="48.29001" lon="6.87479">
        <ele>618.35</ele>
        <time>2018-02-15T14:25:16Z</time>
      </trkpt>
      <trkpt lat="48.29" lon="6.87457">
        <ele>618.33</ele>
        <time>2018-02-15T14:25:26Z</time>
      </trkpt>
      <trkpt lat="48.28998" lon="6.8742">
        <ele>618.39</ele>
        <time>2018-02-15T14:25:49Z</time>
      </trkpt>
      <trkpt lat="48.28995" lon="6.87396">
        <ele>618.62</ele>
        <time>2018-02-15T14:26:02Z</time>
      </trkpt>
      <trkpt lat="48.2899" lon="6.87379">
        <ele>618.28</ele>
        <time>2018-02-15T14:26:16Z</time>
      </trkpt>
      <trkpt lat="48.28982" lon="6.87352">
        <ele>617.58</ele>
        <time>2018-02-15T14:26:34Z</time>
      </trkpt>
      <trkpt lat="48.28962" lon="6.87322">
        <ele>616.53</ele>
        <time>2018-02-15T14:26:57Z</time>
      </trkpt>
      <trkpt lat="48.2894" lon="6.87302">
        <ele>616.81</ele>
        <time>2018-02-15T14:27:16Z</time>
      </trkpt>
      <trkpt lat="48.2892" lon="6.87287">
        <ele>616.77</ele>
        <time>2018-02-15T14:27:35Z</time>
      </trkpt>
      <trkpt lat="48.28898" lon="6.87272">
        <ele>618.38</ele>
        <time>2018-02-15T14:27:57Z</time>
      </trkpt>
      <trkpt lat="48.28888" lon="6.87269">
        <ele>619.46</ele>
        <time>2018-02-15T14:28:06Z</time>
      </trkpt>
      <trkpt lat="48.28872" lon="6.87259">
        <ele>620.81</ele>
        <time>2018-02-15T14:28:22Z</time>
      </trkpt>
      <trkpt lat="48.28862" lon="6.87252">
        <ele>621.72</ele>
        <time>2018-02-15T14:28:31Z</time>
      </trkpt>
      <trkpt lat="48.28854" lon="6.87245">
        <ele>620.76</ele>
        <time>2018-02-15T14:28:40Z</time>
      </trkpt>
      <trkpt lat="48.28852" lon="6.87242">
        <ele>621.97</ele>
        <time>2018-02-15T14:28:43Z</time>
      </trkpt>
      <trkpt lat="48.28846" lon="6.87234">
        <ele>621.61</ele>
        <time>2018-02-15T14:28:54Z</time>
      </trkpt>
      <trkpt lat="48.28844" lon="6.8723">
        <ele>621.5</ele>
        <time>2018-02-15T14:28:59Z</time>
      </trkpt>
      <trkpt lat="48.28842" lon="6.87231">
        <ele>621.41</ele>
        <time>2018-02-15T14:29:02Z</time>
      </trkpt>
      <trkpt lat="48.28843" lon="6.87229">
        <ele>621.03</ele>
        <time>2018-02-15T14:29:23Z</time>
      </trkpt>
      <trkpt lat="48.28831" lon="6.87218">
        <ele>620.63</ele>
        <time>2018-02-15T14:29:45Z</time>
      </trkpt>
      <trkpt lat="48.28822" lon="6.87221">
        <ele>620.4</ele>
        <time>2018-02-15T14:30:16Z</time>
      </trkpt>
      <trkpt lat="48.28823" lon="6.87221">
        <ele>621.55</ele>
        <time>2018-02-15T14:30:35Z</time>
      </trkpt>
      <trkpt lat="48.2884" lon="6.87229">
        <ele>621.6</ele>
        <time>2018-02-15T14:30:50Z</time>
      </trkpt>
      <trkpt lat="48.28846" lon="6.87226">
        <ele>622.28</ele>
        <time>2018-02-15T14:31:17Z</time>
      </trkpt>
      <trkpt lat="48.28847" lon="6.87223">
        <ele>622.19</ele>
        <time>2018-02-15T14:31:46Z</time>
      </trkpt>
      <trkpt lat="48.28842" lon="6.87226">
        <ele>621.91</ele>
        <time>2018-02-15T14:32:14Z</time>
      </trkpt>
      <trkpt lat="48.28844" lon="6.87225">
        <ele>622.15</ele>
        <time>2018-02-15T14:32:41Z</time>
      </trkpt>
      <trkpt lat="48.28838" lon="6.87221">
        <ele>623.04</ele>
        <time>2018-02-15T14:33:13Z</time>
      </trkpt>
      <trkpt lat="48.28839" lon="6.87226">
        <ele>623.2</ele>
        <time>2018-02-15T14:33:46Z</time>
      </trkpt>
      <trkpt lat="48.28841" lon="6.87231">
        <ele>622.98</ele>
        <time>2018-02-15T14:34:13Z</time>
      </trkpt>
      <trkpt lat="48.28837" lon="6.87229">
        <ele>622.84</ele>
        <time>2018-02-15T14:34:21Z</time>
      </trkpt>
      <trkpt lat="48.28833" lon="6.87223">
        <ele>623.16</ele>
        <time>2018-02-15T14:34:42Z</time>
      </trkpt>
      <trkpt lat="48.28833" lon="6.87224">
        <ele>623.34</ele>
        <time>2018-02-15T14:34:43Z</time>
      </trkpt>
      <trkpt lat="48.28832" lon="6.87229">
        <ele>624.31</ele>
        <time>2018-02-15T14:35:08Z</time>
      </trkpt>
      <trkpt lat="48.28834" lon="6.87231">
        <ele>623.81</ele>
        <time>2018-02-15T14:35:16Z</time>
      </trkpt>
      <trkpt lat="48.28812" lon="6.87212">
        <ele>623.81</ele>
        <time>2018-02-15T14:35:36Z</time>
      </trkpt>
      <trkpt lat="48.288" lon="6.87199">
        <ele>622.7</ele>
        <time>2018-02-15T14:35:52Z</time>
      </trkpt>
      <trkpt lat="48.28789" lon="6.87193">
        <ele>622.5</ele>
        <time>2018-02-15T14:36:03Z</time>
      </trkpt>
      <trkpt lat="48.28785" lon="6.87188">
        <ele>621.78</ele>
        <time>2018-02-15T14:36:14Z</time>
      </trkpt>
      <trkpt lat="48.28765" lon="6.87183">
        <ele>620</ele>
        <time>2018-02-15T14:36:37Z</time>
      </trkpt>
      <trkpt lat="48.28745" lon="6.87174">
        <ele>618.5</ele>
        <time>2018-02-15T14:36:56Z</time>
      </trkpt>
      <trkpt lat="48.28721" lon="6.87162">
        <ele>617.98</ele>
        <time>2018-02-15T14:37:15Z</time>
      </trkpt>
      <trkpt lat="48.28714" lon="6.87158">
        <ele>616.79</ele>
        <time>2018-02-15T14:37:28Z</time>
      </trkpt>
      <trkpt lat="48.28695" lon="6.87149">
        <ele>617.03</ele>
        <time>2018-02-15T14:37:44Z</time>
      </trkpt>
      <trkpt lat="48.28678" lon="6.8715">
        <ele>616.33</ele>
        <time>2018-02-15T14:38:04Z</time>
      </trkpt>
      <trkpt lat="48.28674" lon="6.87149">
        <ele>615.98</ele>
        <time>2018-02-15T14:38:10Z</time>
      </trkpt>
      <trkpt lat="48.28651" lon="6.8715">
        <ele>616.51</ele>
        <time>2018-02-15T14:38:27Z</time>
      </trkpt>
      <trkpt lat="48.28627" lon="6.87144">
        <ele>617.25</ele>
        <time>2018-02-15T14:38:48Z</time>
      </trkpt>
      <trkpt lat="48.28602" lon="6.8714">
        <ele>616.59</ele>
        <time>2018-02-15T14:39:09Z</time>
      </trkpt>
      <trkpt lat="48.2858" lon="6.87137">
        <ele>616.78</ele>
        <time>2018-02-15T14:39:28Z</time>
      </trkpt>
      <trkpt lat="48.28562" lon="6.87133">
        <ele>617.57</ele>
        <time>2018-02-15T14:39:45Z</time>
      </trkpt>
      <trkpt lat="48.28546" lon="6.87124">
        <ele>616.59</ele>
        <time>2018-02-15T14:39:56Z</time>
      </trkpt>
      <trkpt lat="48.28529" lon="6.87115">
        <ele>617.05</ele>
        <time>2018-02-15T14:40:12Z</time>
      </trkpt>
      <trkpt lat="48.28524" lon="6.87116">
        <ele>616.38</ele>
        <time>2018-02-15T14:40:26Z</time>
      </trkpt>
      <trkpt lat="48.28528" lon="6.87122">
        <ele>616.22</ele>
        <time>2018-02-15T14:40:55Z</time>
      </trkpt>
      <trkpt lat="48.2852" lon="6.87126">
        <ele>616.39</ele>
        <time>2018-02-15T14:41:11Z</time>
      </trkpt>
      <trkpt lat="48.28523" lon="6.87124">
        <ele>616.98</ele>
        <time>2018-02-15T14:41:14Z</time>
      </trkpt>
      <trkpt lat="48.28527" lon="6.8712">
        <ele>617.31</ele>
        <time>2018-02-15T14:41:21Z</time>
      </trkpt>
      <trkpt lat="48.28527" lon="6.87111">
        <ele>617.2</ele>
        <time>2018-02-15T14:41:39Z</time>
      </trkpt>
      <trkpt lat="48.28534" lon="6.87108">
        <ele>617.9</ele>
        <time>2018-02-15T14:42:00Z</time>
      </trkpt>
      <trkpt lat="48.28528" lon="6.87111">
        <ele>617.52</ele>
        <time>2018-02-15T14:42:31Z</time>
      </trkpt>
      <trkpt lat="48.28523" lon="6.87102">
        <ele>617.42</ele>
        <time>2018-02-15T14:42:46Z</time>
      </trkpt>
      <trkpt lat="48.28525" lon="6.87099">
        <ele>617.43</ele>
        <time>2018-02-15T14:43:08Z</time>
      </trkpt>
      <trkpt lat="48.28525" lon="6.87098">
        <ele>618.16</ele>
        <time>2018-02-15T14:43:11Z</time>
      </trkpt>
      <trkpt lat="48.28526" lon="6.87104">
        <ele>618.83</ele>
        <time>2018-02-15T14:43:35Z</time>
      </trkpt>
      <trkpt lat="48.28527" lon="6.87101">
        <ele>617.38</ele>
        <time>2018-02-15T14:43:55Z</time>
      </trkpt>
      <trkpt lat="48.28526" lon="6.87107">
        <ele>617.99</ele>
        <time>2018-02-15T14:44:24Z</time>
      </trkpt>
      <trkpt lat="48.28524" lon="6.87108">
        <ele>618.72</ele>
        <time>2018-02-15T14:44:52Z</time>
      </trkpt>
      <trkpt lat="48.28524" lon="6.87111">
        <ele>617.58</ele>
        <time>2018-02-15T14:45:17Z</time>
      </trkpt>
      <trkpt lat="48.28528" lon="6.87111">
        <ele>619.31</ele>
        <time>2018-02-15T14:45:41Z</time>
      </trkpt>
      <trkpt lat="48.28537" lon="6.87111">
        <ele>618.88</ele>
        <time>2018-02-15T14:46:05Z</time>
      </trkpt>
      <trkpt lat="48.28534" lon="6.87115">
        <ele>619.03</ele>
        <time>2018-02-15T14:46:11Z</time>
      </trkpt>
      <trkpt lat="48.28531" lon="6.87115">
        <ele>618.69</ele>
        <time>2018-02-15T14:46:16Z</time>
      </trkpt>
      <trkpt lat="48.28524" lon="6.87107">
        <ele>615.91</ele>
        <time>2018-02-15T14:46:37Z</time>
      </trkpt>
      <trkpt lat="48.28525" lon="6.87106">
        <ele>619.8</ele>
        <time>2018-02-15T14:46:39Z</time>
      </trkpt>
      <trkpt lat="48.28525" lon="6.87105">
        <ele>623.88</ele>
        <time>2018-02-15T14:46:40Z</time>
      </trkpt>
      <trkpt lat="48.28525" lon="6.87105">
        <ele>619.52</ele>
        <time>2018-02-15T14:46:41Z</time>
      </trkpt>
      <trkpt lat="48.28525" lon="6.87105">
        <ele>618.44</ele>
        <time>2018-02-15T14:46:43Z</time>
      </trkpt>
      <trkpt lat="48.28532" lon="6.87112">
        <ele>618.79</ele>
        <time>2018-02-15T14:47:07Z</time>
      </trkpt>
      <trkpt lat="48.2853" lon="6.87113">
        <ele>618.95</ele>
        <time>2018-02-15T14:47:26Z</time>
      </trkpt>
      <trkpt lat="48.28524" lon="6.87119">
        <ele>619.48</ele>
        <time>2018-02-15T14:47:54Z</time>
      </trkpt>
      <trkpt lat="48.28525" lon="6.8712">
        <ele>619.98</ele>
        <time>2018-02-15T14:48:21Z</time>
      </trkpt>
      <trkpt lat="48.28525" lon="6.87122">
        <ele>619.28</ele>
        <time>2018-02-15T14:48:48Z</time>
      </trkpt>
      <trkpt lat="48.28535" lon="6.87115">
        <ele>618.95</ele>
        <time>2018-02-15T14:49:16Z</time>
      </trkpt>
      <trkpt lat="48.28528" lon="6.8711">
        <ele>619.02</ele>
        <time>2018-02-15T14:49:42Z</time>
      </trkpt>
      <trkpt lat="48.28528" lon="6.871">
        <ele>619.48</ele>
        <time>2018-02-15T14:50:09Z</time>
      </trkpt>
      <trkpt lat="48.28525" lon="6.87109">
        <ele>619.78</ele>
        <time>2018-02-15T14:50:37Z</time>
      </trkpt>
      <trkpt lat="48.28519" lon="6.87083">
        <ele>619.19</ele>
        <time>2018-02-15T14:51:00Z</time>
      </trkpt>
      <trkpt lat="48.28519" lon="6.8706">
        <ele>617.43</ele>
        <time>2018-02-15T14:51:21Z</time>
      </trkpt>
      <trkpt lat="48.28519" lon="6.87054">
        <ele>615.84</ele>
        <time>2018-02-15T14:51:28Z</time>
      </trkpt>
      <trkpt lat="48.2852" lon="6.87044">
        <ele>615.9</ele>
        <time>2018-02-15T14:51:36Z</time>
      </trkpt>
      <trkpt lat="48.28515" lon="6.87027">
        <ele>613.44</ele>
        <time>2018-02-15T14:51:51Z</time>
      </trkpt>
      <trkpt lat="48.28521" lon="6.87015">
        <ele>612.81</ele>
        <time>2018-02-15T14:52:02Z</time>
      </trkpt>
      <trkpt lat="48.28524" lon="6.87008">
        <ele>613.29</ele>
        <time>2018-02-15T14:52:06Z</time>
      </trkpt>
      <trkpt lat="48.28532" lon="6.86994">
        <ele>612.73</ele>
        <time>2018-02-15T14:52:15Z</time>
      </trkpt>
      <trkpt lat="48.28543" lon="6.86986">
        <ele>613.99</ele>
        <time>2018-02-15T14:52:33Z</time>
      </trkpt>
      <trkpt lat="48.28543" lon="6.86986">
        <ele>613.42</ele>
        <time>2018-02-15T14:52:34Z</time>
      </trkpt>
      <trkpt lat="48.28555" lon="6.86983">
        <ele>614.22</ele>
        <time>2018-02-15T14:52:48Z</time>
      </trkpt>
      <trkpt lat="48.2856" lon="6.86979">
        <ele>613.76</ele>
        <time>2018-02-15T14:52:52Z</time>
      </trkpt>
      <trkpt lat="48.28562" lon="6.86977">
        <ele>613.37</ele>
        <time>2018-02-15T14:52:55Z</time>
      </trkpt>
      <trkpt lat="48.28575" lon="6.86968">
        <ele>614.53</ele>
        <time>2018-02-15T14:53:08Z</time>
      </trkpt>
      <trkpt lat="48.28577" lon="6.86966">
        <ele>614.81</ele>
        <time>2018-02-15T14:53:11Z</time>
      </trkpt>
      <trkpt lat="48.28588" lon="6.86954">
        <ele>615.27</ele>
        <time>2018-02-15T14:53:21Z</time>
      </trkpt>
      <trkpt lat="48.28602" lon="6.86937">
        <ele>615.7</ele>
        <time>2018-02-15T14:53:39Z</time>
      </trkpt>
      <trkpt lat="48.28613" lon="6.86929">
        <ele>616.94</ele>
        <time>2018-02-15T14:53:57Z</time>
      </trkpt>
      <trkpt lat="48.28613" lon="6.86927">
        <ele>616.7</ele>
        <time>2018-02-15T14:53:58Z</time>
      </trkpt>
      <trkpt lat="48.28628" lon="6.86911">
        <ele>616.81</ele>
        <time>2018-02-15T14:54:15Z</time>
      </trkpt>
      <trkpt lat="48.2864" lon="6.86903">
        <ele>618.63</ele>
        <time>2018-02-15T14:54:36Z</time>
      </trkpt>
      <trkpt lat="48.28647" lon="6.86902">
        <ele>619.52</ele>
        <time>2018-02-15T14:54:43Z</time>
      </trkpt>
      <trkpt lat="48.28655" lon="6.86898">
        <ele>619.05</ele>
        <time>2018-02-15T14:54:52Z</time>
      </trkpt>
      <trkpt lat="48.28659" lon="6.86897">
        <ele>617.65</ele>
        <time>2018-02-15T14:54:56Z</time>
      </trkpt>
      <trkpt lat="48.28664" lon="6.86892">
        <ele>620.2</ele>
        <time>2018-02-15T14:55:03Z</time>
      </trkpt>
      <trkpt lat="48.28669" lon="6.86892">
        <ele>619.8</ele>
        <time>2018-02-15T14:55:09Z</time>
      </trkpt>
      <trkpt lat="48.28673" lon="6.86892">
        <ele>621.38</ele>
        <time>2018-02-15T14:55:12Z</time>
      </trkpt>
      <trkpt lat="48.28674" lon="6.86891">
        <ele>620.94</ele>
        <time>2018-02-15T14:55:14Z</time>
      </trkpt>
      <trkpt lat="48.28689" lon="6.86881">
        <ele>622.73</ele>
        <time>2018-02-15T14:55:28Z</time>
      </trkpt>
      <trkpt lat="48.28705" lon="6.86872">
        <ele>623.44</ele>
        <time>2018-02-15T14:55:43Z</time>
      </trkpt>
      <trkpt lat="48.28721" lon="6.8686">
        <ele>624.31</ele>
        <time>2018-02-15T14:56:01Z</time>
      </trkpt>
      <trkpt lat="48.28737" lon="6.86848">
        <ele>626.25</ele>
        <time>2018-02-15T14:56:22Z</time>
      </trkpt>
      <trkpt lat="48.28745" lon="6.8683">
        <ele>626.8</ele>
        <time>2018-02-15T14:56:42Z</time>
      </trkpt>
      <trkpt lat="48.2875" lon="6.86819">
        <ele>626.76</ele>
        <time>2018-02-15T14:56:54Z</time>
      </trkpt>
      <trkpt lat="48.28763" lon="6.86786">
        <ele>628.33</ele>
        <time>2018-02-15T14:57:16Z</time>
      </trkpt>
      <trkpt lat="48.28779" lon="6.86762">
        <ele>629.16</ele>
        <time>2018-02-15T14:57:38Z</time>
      </trkpt>
      <trkpt lat="48.28794" lon="6.86746">
        <ele>629.29</ele>
        <time>2018-02-15T14:57:58Z</time>
      </trkpt>
      <trkpt lat="48.28802" lon="6.86718">
        <ele>629.77</ele>
        <time>2018-02-15T14:58:18Z</time>
      </trkpt>
      <trkpt lat="48.28805" lon="6.86696">
        <ele>628.86</ele>
        <time>2018-02-15T14:58:35Z</time>
      </trkpt>
      <trkpt lat="48.28806" lon="6.86693">
        <ele>629.13</ele>
        <time>2018-02-15T14:58:39Z</time>
      </trkpt>
      <trkpt lat="48.28807" lon="6.86688">
        <ele>628.27</ele>
        <time>2018-02-15T14:58:43Z</time>
      </trkpt>
      <trkpt lat="48.28816" lon="6.8666">
        <ele>626.96</ele>
        <time>2018-02-15T14:59:04Z</time>
      </trkpt>
      <trkpt lat="48.28817" lon="6.86657">
        <ele>627.14</ele>
        <time>2018-02-15T14:59:06Z</time>
      </trkpt>
      <trkpt lat="48.2882" lon="6.86653">
        <ele>627.71</ele>
        <time>2018-02-15T14:59:09Z</time>
      </trkpt>
      <trkpt lat="48.28825" lon="6.86644">
        <ele>627.68</ele>
        <time>2018-02-15T14:59:16Z</time>
      </trkpt>
      <trkpt lat="48.28838" lon="6.86618">
        <ele>626.95</ele>
        <time>2018-02-15T14:59:33Z</time>
      </trkpt>
      <trkpt lat="48.28852" lon="6.86595">
        <ele>628.07</ele>
        <time>2018-02-15T14:59:47Z</time>
      </trkpt>
      <trkpt lat="48.28861" lon="6.86575">
        <ele>628.41</ele>
        <time>2018-02-15T15:00:00Z</time>
      </trkpt>
      <trkpt lat="48.28861" lon="6.86573">
        <ele>627.98</ele>
        <time>2018-02-15T15:00:01Z</time>
      </trkpt>
      <trkpt lat="48.28871" lon="6.86552">
        <ele>628.55</ele>
        <time>2018-02-15T15:00:20Z</time>
      </trkpt>
      <trkpt lat="48.28884" lon="6.86529">
        <ele>627.99</ele>
        <time>2018-02-15T15:00:33Z</time>
      </trkpt>
      <trkpt lat="48.28891" lon="6.86505">
        <ele>627.09</ele>
        <time>2018-02-15T15:00:51Z</time>
      </trkpt>
      <trkpt lat="48.2889" lon="6.865">
        <ele>627.35</ele>
        <time>2018-02-15T15:00:54Z</time>
      </trkpt>
      <trkpt lat="48.28891" lon="6.86496">
        <ele>626.44</ele>
        <time>2018-02-15T15:00:59Z</time>
      </trkpt>
      <trkpt lat="48.28893" lon="6.86486">
        <ele>626.37</ele>
        <time>2018-02-15T15:01:06Z</time>
      </trkpt>
      <trkpt lat="48.28895" lon="6.86468">
        <ele>625.68</ele>
        <time>2018-02-15T15:01:17Z</time>
      </trkpt>
      <trkpt lat="48.28895" lon="6.86432">
        <ele>625.67</ele>
        <time>2018-02-15T15:01:31Z</time>
      </trkpt>
      <trkpt lat="48.28886" lon="6.86396">
        <ele>624.39</ele>
        <time>2018-02-15T15:01:51Z</time>
      </trkpt>
      <trkpt lat="48.2888" lon="6.86361">
        <ele>623.26</ele>
        <time>2018-02-15T15:02:11Z</time>
      </trkpt>
      <trkpt lat="48.28869" lon="6.86327">
        <ele>621.74</ele>
        <time>2018-02-15T15:02:32Z</time>
      </trkpt>
      <trkpt lat="48.28865" lon="6.86321">
        <ele>621.89</ele>
        <time>2018-02-15T15:02:37Z</time>
      </trkpt>
      <trkpt lat="48.28862" lon="6.86304">
        <ele>622.22</ele>
        <time>2018-02-15T15:02:53Z</time>
      </trkpt>
      <trkpt lat="48.2886" lon="6.86303">
        <ele>621.8</ele>
        <time>2018-02-15T15:03:19Z</time>
      </trkpt>
      <trkpt lat="48.28857" lon="6.86301">
        <ele>621.75</ele>
        <time>2018-02-15T15:03:41Z</time>
      </trkpt>
      <trkpt lat="48.2885" lon="6.86302">
        <ele>621.84</ele>
        <time>2018-02-15T15:04:00Z</time>
      </trkpt>
      <trkpt lat="48.28853" lon="6.86288">
        <ele>621.07</ele>
        <time>2018-02-15T15:04:19Z</time>
      </trkpt>
      <trkpt lat="48.28853" lon="6.86269">
        <ele>620.48</ele>
        <time>2018-02-15T15:04:36Z</time>
      </trkpt>
      <trkpt lat="48.28854" lon="6.86267">
        <ele>621.84</ele>
        <time>2018-02-15T15:04:38Z</time>
      </trkpt>
      <trkpt lat="48.28855" lon="6.86244">
        <ele>623.62</ele>
        <time>2018-02-15T15:04:54Z</time>
      </trkpt>
      <trkpt lat="48.28853" lon="6.86213">
        <ele>624.56</ele>
        <time>2018-02-15T15:05:16Z</time>
      </trkpt>
      <trkpt lat="48.28853" lon="6.86206">
        <ele>623.51</ele>
        <time>2018-02-15T15:05:21Z</time>
      </trkpt>
      <trkpt lat="48.28845" lon="6.86179">
        <ele>623.2</ele>
        <time>2018-02-15T15:05:41Z</time>
      </trkpt>
      <trkpt lat="48.28841" lon="6.86171">
        <ele>622.59</ele>
        <time>2018-02-15T15:05:55Z</time>
      </trkpt>
      <trkpt lat="48.28833" lon="6.86154">
        <ele>621.59</ele>
        <time>2018-02-15T15:06:14Z</time>
      </trkpt>
      <trkpt lat="48.28822" lon="6.86141">
        <ele>620.88</ele>
        <time>2018-02-15T15:06:31Z</time>
      </trkpt>
      <trkpt lat="48.28822" lon="6.86136">
        <ele>621.44</ele>
        <time>2018-02-15T15:06:52Z</time>
      </trkpt>
      <trkpt lat="48.28813" lon="6.86134">
        <ele>620.96</ele>
        <time>2018-02-15T15:07:09Z</time>
      </trkpt>
      <trkpt lat="48.2881" lon="6.86126">
        <ele>621.22</ele>
        <time>2018-02-15T15:07:27Z</time>
      </trkpt>
      <trkpt lat="48.28808" lon="6.86122">
        <ele>621.73</ele>
        <time>2018-02-15T15:07:43Z</time>
      </trkpt>
      <trkpt lat="48.28809" lon="6.86124">
        <ele>621.6</ele>
        <time>2018-02-15T15:07:58Z</time>
      </trkpt>
      <trkpt lat="48.28809" lon="6.86122">
        <ele>621.39</ele>
        <time>2018-02-15T15:08:11Z</time>
      </trkpt>
      <trkpt lat="48.28807" lon="6.86117">
        <ele>621.42</ele>
        <time>2018-02-15T15:08:25Z</time>
      </trkpt>
      <trkpt lat="48.28805" lon="6.86114">
        <ele>619.91</ele>
        <time>2018-02-15T15:08:39Z</time>
      </trkpt>
      <trkpt lat="48.28806" lon="6.86111">
        <ele>620.62</ele>
        <time>2018-02-15T15:08:57Z</time>
      </trkpt>
      <trkpt lat="48.2881" lon="6.86105">
        <ele>620.21</ele>
        <time>2018-02-15T15:09:10Z</time>
      </trkpt>
      <trkpt lat="48.28817" lon="6.86081">
        <ele>619.51</ele>
        <time>2018-02-15T15:09:31Z</time>
      </trkpt>
      <trkpt lat="48.28821" lon="6.86068">
        <ele>618.44</ele>
        <time>2018-02-15T15:09:46Z</time>
      </trkpt>
      <trkpt lat="48.28821" lon="6.86036">
        <ele>616.58</ele>
        <time>2018-02-15T15:10:06Z</time>
      </trkpt>
      <trkpt lat="48.28828" lon="6.8602">
        <ele>613.27</ele>
        <time>2018-02-15T15:10:21Z</time>
      </trkpt>
      <trkpt lat="48.28831" lon="6.85994">
        <ele>611.71</ele>
        <time>2018-02-15T15:10:39Z</time>
      </trkpt>
      <trkpt lat="48.28833" lon="6.85972">
        <ele>611.72</ele>
        <time>2018-02-15T15:10:58Z</time>
      </trkpt>
      <trkpt lat="48.28829" lon="6.85949">
        <ele>611.68</ele>
        <time>2018-02-15T15:11:17Z</time>
      </trkpt>
      <trkpt lat="48.28829" lon="6.85941">
        <ele>604.36</ele>
        <time>2018-02-15T15:11:22Z</time>
      </trkpt>
      <trkpt lat="48.28831" lon="6.85936">
        <ele>602.96</ele>
        <time>2018-02-15T15:11:25Z</time>
      </trkpt>
      <trkpt lat="48.28836" lon="6.85934">
        <ele>603</ele>
        <time>2018-02-15T15:11:31Z</time>
      </trkpt>
      <trkpt lat="48.28841" lon="6.85936">
        <ele>602.63</ele>
        <time>2018-02-15T15:11:35Z</time>
      </trkpt>
      <trkpt lat="48.28855" lon="6.85935">
        <ele>602.85</ele>
        <time>2018-02-15T15:11:48Z</time>
      </trkpt>
      <trkpt lat="48.2886" lon="6.85932">
        <ele>602.1</ele>
        <time>2018-02-15T15:11:53Z</time>
      </trkpt>
      <trkpt lat="48.28878" lon="6.85924">
        <ele>600.29</ele>
        <time>2018-02-15T15:12:09Z</time>
      </trkpt>
      <trkpt lat="48.28892" lon="6.85916">
        <ele>599.24</ele>
        <time>2018-02-15T15:12:23Z</time>
      </trkpt>
      <trkpt lat="48.28908" lon="6.85896">
        <ele>599.11</ele>
        <time>2018-02-15T15:12:41Z</time>
      </trkpt>
      <trkpt lat="48.28919" lon="6.8588">
        <ele>598.69</ele>
        <time>2018-02-15T15:12:57Z</time>
      </trkpt>
      <trkpt lat="48.28934" lon="6.85865">
        <ele>597.71</ele>
        <time>2018-02-15T15:13:15Z</time>
      </trkpt>
      <trkpt lat="48.28949" lon="6.85854">
        <ele>597.46</ele>
        <time>2018-02-15T15:13:32Z</time>
      </trkpt>
      <trkpt lat="48.28951" lon="6.85854">
        <ele>597.46</ele>
        <time>2018-02-15T15:13:33Z</time>
      </trkpt>
      <trkpt lat="48.28962" lon="6.85849">
        <ele>595.73</ele>
        <time>2018-02-15T15:13:47Z</time>
      </trkpt>
      <trkpt lat="48.2898" lon="6.85845">
        <ele>595.26</ele>
        <time>2018-02-15T15:14:05Z</time>
      </trkpt>
      <trkpt lat="48.28984" lon="6.85846">
        <ele>595.19</ele>
        <time>2018-02-15T15:14:11Z</time>
      </trkpt>
      <trkpt lat="48.29009" lon="6.85838">
        <ele>596.07</ele>
        <time>2018-02-15T15:14:26Z</time>
      </trkpt>
      <trkpt lat="48.29026" lon="6.85835">
        <ele>594.64</ele>
        <time>2018-02-15T15:14:44Z</time>
      </trkpt>
      <trkpt lat="48.29029" lon="6.85835">
        <ele>595.25</ele>
        <time>2018-02-15T15:14:50Z</time>
      </trkpt>
      <trkpt lat="48.29044" lon="6.85833">
        <ele>595.6</ele>
        <time>2018-02-15T15:15:05Z</time>
      </trkpt>
      <trkpt lat="48.2905" lon="6.85829">
        <ele>594.97</ele>
        <time>2018-02-15T15:15:12Z</time>
      </trkpt>
      <trkpt lat="48.29067" lon="6.85817">
        <ele>592.67</ele>
        <time>2018-02-15T15:15:26Z</time>
      </trkpt>
      <trkpt lat="48.29071" lon="6.85815">
        <ele>593.1</ele>
        <time>2018-02-15T15:15:31Z</time>
      </trkpt>
      <trkpt lat="48.29077" lon="6.85814">
        <ele>591.52</ele>
        <time>2018-02-15T15:15:37Z</time>
      </trkpt>
      <trkpt lat="48.29093" lon="6.85807">
        <ele>590.59</ele>
        <time>2018-02-15T15:15:50Z</time>
      </trkpt>
      <trkpt lat="48.29115" lon="6.85793">
        <ele>589.65</ele>
        <time>2018-02-15T15:16:04Z</time>
      </trkpt>
      <trkpt lat="48.29119" lon="6.85785">
        <ele>586.5</ele>
        <time>2018-02-15T15:16:13Z</time>
      </trkpt>
      <trkpt lat="48.2913" lon="6.85773">
        <ele>585.58</ele>
        <time>2018-02-15T15:16:29Z</time>
      </trkpt>
      <trkpt lat="48.29141" lon="6.85758">
        <ele>585.73</ele>
        <time>2018-02-15T15:16:35Z</time>
      </trkpt>
      <trkpt lat="48.29147" lon="6.85756">
        <ele>584.69</ele>
        <time>2018-02-15T15:16:42Z</time>
      </trkpt>
      <trkpt lat="48.29169" lon="6.85725">
        <ele>584.79</ele>
        <time>2018-02-15T15:17:04Z</time>
      </trkpt>
      <trkpt lat="48.29186" lon="6.85716">
        <ele>584.92</ele>
        <time>2018-02-15T15:17:23Z</time>
      </trkpt>
      <trkpt lat="48.29198" lon="6.85713">
        <ele>585.12</ele>
        <time>2018-02-15T15:17:45Z</time>
      </trkpt>
      <trkpt lat="48.29196" lon="6.85713">
        <ele>584.95</ele>
        <time>2018-02-15T15:18:10Z</time>
      </trkpt>
    </trkseg>
  </trk>
</gpx>